NCAR-RAP Real-Time Weather Data

Output produced by METARs form (18 August 2018  01:02 UTC)
found at http://weather.rap.ucar.edu/surface/
 
ROIG 180049Z 21011KT 5000 R04/0600V1400U +SHRA FEW005 BKN015 FEW025CB BKN040 24/24 Q1004 RMK 1ST005 6CU015 1CB025 7SC040 A2966 CB OHD MOV N
ROIG 180042Z 21012KT 2000 R04/0600V1600U +SHRA FEW005 BKN015 FEW025CB BKN040 24/24 Q1004 RMK 1ST005 6CU015 1CB025 7SC040 A2966 CB OHD MOV N RI++
ROIG 180033Z 20005KT 4000 R04/1100VP1800D +SHRA FEW005 BKN020 FEW028CB BKN040 25/25 Q1004 RMK 1ST005 6CU020 1CB028 7SC040 A2965 CB OHD MOV N RI++
ROIG 180021Z 19005KT 120V220 8000 R04/0700V1600U SHRA FEW014 BKN021 FEW028CB BKN040 24/24 Q1004 RMK 1CU014 6CU021 1CB028 7SC040 A2965 CB OHD MOV N
ROIG 180012Z 21003KT 160V280 5000 R04/0800VP1800D +SHRA FEW014 BKN021 FEW028CB BKN040 24/24 Q1004 RMK 1CU014 6CU021 1CB028 7SC040 A2965 CB OHD MOV N
ROIG 180000Z 25003KT 200V290 8000 R04/1200VP1800U SHRA FEW014 BKN021 FEW028CB BKN040 23/23 Q1003
ROIG 172350Z 22004KT 200V270 8000 R04/0500V1800U SHRA FEW014 BKN021 FEW028CB BKN040 23/23 Q1004 RMK 1CU014 6CU021 1CB028 7SC040 A2965 CB OHD MOV N
ROIG 172340Z 19007KT 4000 R04/0750VP1800D +SHRA FEW005 BKN018 FEW028CB BKN060 24/24 Q1004 RMK 1ST005 6CU018 1CB028 7SC060 A2965 CB OHD MOV N RI++
ROIG 172331Z 16003KT 120V210 9999 -SHRA FEW005 SCT018 FEW028CB BKN060 24/24 Q1004 RMK 1ST005 4CU018 1CB028 7SC060 A2965 CB 5KM E MOV N
ROIG 172313Z VRB01KT 9999 SHRA FEW010 BKN018 FEW028CB BKN041 23/23 Q1004 RMK 1CU010 6CU018 1CB028 7SC041 A2965 CB OHD MOV N
ROIG 172300Z 25003KT 9999 R04/0700VP1800U SHRA FEW010 BKN018 FEW028CB 23/23 Q1003
ROIG 172244Z 22006KT 4000 R04/0450V0900D +SHRA FEW013 BKN018 FEW028CB 23/23 Q1003 RMK 1CU013 6CU018 1CB028 A2963 CB OHD MOV N RI++
ROIG 172222Z 19011KT 5000 R04/0600V1100D +SHRA FEW010 BKN020 FEW028CB 24/24 Q1003 RMK 1CU010 6CU020 1CB028 A2963 CB OHD MOV N RI++
ROIG 172206Z 18013KT 5000 R04/0500VP1800D +SHRA FEW010 BKN023 FEW028CB 24/24 Q1003 RMK 1CU010 6CU023 1CB028 A2962 CB OHD MOV N RI++
ROIG 172200Z 18011KT 9999 -SHRA FEW010 BKN023 FEW028CB 25/25 Q1003
ROIG 172136Z 21012KT 9999 R04/0700VP1800D SHRA FEW013 BKN023 BKN150 25/25 Q1002 RMK 1CU013 6CU023 7AC150 A2961
ROIG 172100Z 18011KT 9999 FEW013 BKN023 BKN/// 27/26 Q1002
ROIG 171100Z 16015KT 9999 FEW008 BKN014 BKN060 27/26 Q1001
ROIG 171000Z 17014KT 9999 -RA FEW008 BKN012 BKN070 27/26 Q1001
ROIG 170900Z 16016KT 9999 -SHRA FEW008 BKN013 BKN040 26/26 Q1000
ROIG 170840Z 17014KT 7000 -SHRA FEW007 SCT013 FEW020CB BKN025 26/26 Q1000 RMK 2ST007 4CU013 1CB020 6CU025 A2955 CB 10KM SW MOV N
ROIG 170819Z 17014KT 4000 SHRA FEW006 BKN011 FEW020CB BKN030 26/26 Q1000 RMK 2ST006 5CU011 1CB020 6CU030 A2955 CB 10KM S MOV N
ROIG 170800Z 16014KT 8000 -SHRA FEW005 BKN010 FEW020CB BKN025 27/27 Q1000
ROIG 170746Z 16012KT 140V210 6000 R04/1700D SHRA FEW005 BKN009 FEW020CB BKN030 27/27 Q1000 RMK 2ST005 5CU009 2CB020 6CU030 A2955 CB 10KM S MOV N AND 20KM W MOV N
ROIG 170700Z 15013G26KT 130V190 9999 -SHRA FEW007 BKN016 FEW025CB BKN030 27/26 Q1000
ROIG 170600Z 15013KT 9999 -RA FEW007 SCT015 BKN040 27/26 Q1000
ROIG 170500Z 17012KT 9999 -SHRA FEW006 BKN013 FEW025CB BKN045 27/26 Q1000
ROIG 170412Z 18017G28KT 9999 -SHRA FEW008 BKN013 FEW025CB BKN050 27/26 Q1000 RMK 2CU008 5CU013 2CB025 6SC050 A2955 CB 10KM SE MOV NE
ROIG 170400Z 18013KT 9999 -SHRA FEW012 BKN020 FEW025CB BKN050 30/27 Q1000
ROIG 170300Z 18015KT 9999 -SHRA FEW010 BKN023 FEW028CB BKN050 30/27 Q1001
ROIG 170200Z 18015KT 9999 SCT015 BKN050 BKN170 29/27 Q1001
ROIG 170100Z 18013KT 9999 FEW013 BKN150 29/27 Q1001
ROIG 170000Z 18015KT 9999 FEW010 BKN080 28/27 Q1001
ROIG 162300Z 19011KT 9999 -RA FEW006 BKN050 27/27 Q1000
ROIG 162244Z 19012KT 9999 -SHRA FEW006 SCT010 BKN021 27/27 Q1000 RMK 1ST006 4CU010 7CU021 A2955
ROIG 162219Z 18012KT 9999 SHRA FEW006 SCT015 BKN021 26/26 Q1000 RMK 1ST006 4CU015 7CU021 A2956
ROIG 162200Z 17014KT 9999 -SHRA FEW006 SCT010 BKN015 FEW025CB 26/26 Q1000
ROIG 162150Z 19013KT 9999 -SHRA FEW006 SCT010 BKN015 FEW025CB 26/26 Q1000 RMK 1ST006 4CU010 6CU015 1CB025 A2955 CB 15KM NW MOV NE
ROIG 162139Z 19012KT 9999 SHRA FEW006 SCT009 BKN015 FEW025CB 26/26 Q1000 RMK 1ST006 4CU009 6CU015 1CB025 A2955 CB 20KM W MOV NE
ROIG 162117Z 20005KT 9999 TSRA FEW005 SCT010 BKN015 FEW025CB 25/25 Q1000 RMK 1ST005 3CU010 6CU015 1CB025 A2955 FBL TS 10KM NW MOV NE
ROIG 162100Z 18007KT 9999 -SHRA FEW005 SCT020 FEW025CB BKN070 25/25 Q1000
ROIG 161147Z 20019G29KT 170V240 1000 R04/0250V0600U +TSRA FEW005 SCT009 BKN015 FEW025CB 27/27 Q1001 RMK 2ST005 4CU009 6CU015 1CB025 A2957 FBL TS OHD MOV NE RI++
ROIG 161137Z 23019KT 1000 R04/0250V0550D +TSRA FEW005 SCT009 BKN015 FEW025CB 26/26 Q1002 RMK 2ST005 4CU009 6CU015 1CB025 A2959 FBL TS 10KM SW MOV NE P/RR RI++
ROIG 161128Z 22011G23KT 190V280 2000 R04/0250V0900D +SHRA FEW005 SCT009 BKN015 FEW025CB 26/26 Q1001 RMK 2ST005 4CU009 6CU015 1CB025 A2957 CB OHD MOV NE RI++
ROIG 161123Z 25011G23KT 220V290 2000 R04/0300VP1800D +SHRA FEW005 SCT009 BKN015 FEW025CB 26/26 Q1001 RMK 2ST005 4CU009 7CU015 1CB025 A2957 CB OHD MOV NE RI++
ROIG 161119Z 27009KT 230V290 3000 R04/0750VP1800D +SHRA FEW005 SCT009 BKN021 FEW025CB 26/26 Q1001 RMK 2ST005 4CU009 7CU021 1CB025 A2956 CB OHD MOV NE RI++
ROIG 161100Z 22013KT 9999 -SHRA FEW006 SCT017 BKN022 26/26 Q1000
ROIG 161046Z 21015KT 9999 -SHRA FEW006 SCT011 BKN018 26/26 Q1000 RMK 2ST006 3CU011 7CU018 A2955
ROIG 161040Z 24005KT 160V310 9999 SHRA FEW006 SCT011 BKN020 FEW025CB 26/26 Q1000 RMK 2ST006 3CU011 6CU020 2CB025 A2956 CB OHD MOV NE
ROIG 161032Z 25006KT 210V290 8000 R04/1100VP1800U TSRA FEW005 SCT011 BKN020 FEW025CB 26/26 Q1001 RMK 1ST005 3CU011 6CU020 2CB025 A2956 FBL TS 10KM W MOV NE
ROIG 161013Z VRB06KT 5000 R04/0600VP1800U +TSRA FEW005 BKN015 FEW025CB 26/26 Q1000 RMK 1ST005 6CU015 2CB025 A2955 FBL TS 10KM W MOV NE
ROIG 161000Z 24009KT 1000 R04/0400V0750D +SHRA FEW005 BKN015 FEW025CB 26/26 Q1001
ROIG 160900Z 20009KT 9999 -SHRA FEW008 SCT010 BKN018 27/27 Q1000
ROIG 160800Z 20010KT 9999 FEW015 FEW025CB SCT050 OVC080 27/26 Q1000
ROIG 160700Z 19010KT 9999 VCSH FEW006 BKN050 OVC080 26/26 Q1000
ROIG 160600Z 22012KT 9999 -RA FEW012 BKN035 OVC080 26/26 Q1001
ROIG 160500Z 22011KT 9999 FEW013 SCT021 BKN060 27/26 Q1000
ROIG 160415Z 19008KT 140V220 9999 -SHRA FEW006 SCT010 BKN026 26/26 Q1001 RMK 1ST006 4CU010 7CU026 A2959
ROIG 160400Z 17006KT 130V210 9999 SHRA FEW006 SCT010 BKN018 25/25 Q1002
ROIG 160323Z VRB02KT 9999 -RA FEW005 SCT021 OVC080 25/25 Q1002 RMK 1ST005 4CU021 8AS080 A2959
ROIG 160300Z VRB02KT 9999 RA FEW005 OVC080 25/25 Q1001
ROIG 160213Z 26004KT 9999 RA FEW005 OVC080 25/25 Q1001 RMK 1ST005 8AS080 A2957
ROIG 160200Z 24006KT 9999 -RA FEW005 OVC100 25/25 Q1001
ROIG 160140Z 25010KT 9999 -SHRA FEW005 FEW020CB SCT025 BKN060 25/25 Q1001 RMK 1ST005 2CB020 3CU025 5SC060 A2958 CB 10KM S MOV E
ROIG 160120Z 26010KT 7000 SHRA FEW005 SCT015 FEW025CB BKN040 25/25 Q1002 RMK 1ST005 3CU015 2CB025 5SC040 A2959 CB OHD MOV E
ROIG 160111Z 27012KT 7000 R04/1000VP1800D SHRA FEW005 SCT015 FEW025CB BKN040 25/25 Q1002 RMK 1ST005 3CU015 2CB025 5SC040 A2960 CB OHD MOV E
ROIG 160100Z 25012KT 9999 -SHRA FEW005 FEW025CB SCT030 BKN040 25/25 Q1002
ROIG 160043Z 25012KT 9999 -TSRA FEW005 SCT015 FEW025CB BKN040 25/25 Q1002 RMK 1ST005 3CU015 2CB025 5SC040 A2960 FBL TS OHD MOV E
ROIG 160037Z 24012KT 7000 R04/0450VP1800U TSRA FEW005 SCT015 FEW025CB BKN030 25/25 Q1002 RMK 1ST005 3CU015 2CB025 5CU030 A2959 FBL TS OHD MOV E
ROIG 160031Z 23015KT 7000 R04/0450VP1800D +SHRA FEW005 SCT015 FEW025CB BKN030 25/24 Q1001 RMK 1ST005 3CU015 2CB025 5CU030 A2959 CB OHD MOV E
ROIG 160019Z 23012KT 4000 R04/0700VP1800U SHRA FEW005 SCT015 FEW025CB BKN030 25/25 Q1002 RMK 1ST005 3CU015 2CB025 5CU030 A2959 CB OHD MOV E
ROIG 160000Z 23016KT 3000 R04/0650VP1800D +SHRA FEW006 SCT010 FEW025CB BKN030 26/26 Q1001
ROIG 152337Z 24010KT 9999 -SHRA FEW006 SCT010 BKN015 FEW025CB 27/26 Q1001 RMK 1ST006 3CU010 5CU015 1CB025 A2958 CB OHD MOV E
ROIG 152300Z 03003KT 9999 -SHRA FEW006 SCT020 FEW025CB BKN030 26/26 Q1001
ROIG 152200Z 30004KT 9999 -RA FEW006 SCT060 BKN070 26/26 Q1001
ROIG 152100Z 30003KT 9999 VCSH FEW012 SCT025 BKN070 25/25 Q1000